sensor_id;sensor_type;location;lat;lon;timestamp;temperature;humidity
13458;DHT22;6801;53.018;11.560;2022-12-10T00:00:10;0.80;82.60
13458;DHT22;6801;53.018;11.560;2022-12-10T00:02:38;0.90;82.40
13458;DHT22;6801;53.018;11.560;2022-12-10T00:05:05;0.80;82.30
13458;DHT22;6801;53.018;11.560;2022-12-10T00:07:34;0.80;82.20
13458;DHT22;6801;53.018;11.560;2022-12-10T00:10:01;0.80;82.10
13458;DHT22;6801;53.018;11.560;2022-12-10T00:12:28;0.70;82.30
13458;DHT22;6801;53.018;11.560;2022-12-10T00:14:55;0.70;82.50
13458;DHT22;6801;53.018;11.560;2022-12-10T00:17:22;0.70;82.60
13458;DHT22;6801;53.018;11.560;2022-12-10T00:19:49;0.70;82.60
13458;DHT22;6801;53.018;11.560;2022-12-10T00:22:16;0.70;82.70
13458;DHT22;6801;53.018;11.560;2022-12-10T00:24:44;0.70;82.60
13458;DHT22;6801;53.018;11.560;2022-12-10T00:27:12;0.70;82.50
13458;DHT22;6801;53.018;11.560;2022-12-10T00:29:39;0.70;82.60
13458;DHT22;6801;53.018;11.560;2022-12-10T00:32:06;0.70;82.60
13458;DHT22;6801;53.018;11.560;2022-12-10T00:34:34;0.70;82.70
13458;DHT22;6801;53.018;11.560;2022-12-10T00:37:01;0.70;82.90
13458;DHT22;6801;53.018;11.560;2022-12-10T00:39:28;0.70;82.90
13458;DHT22;6801;53.018;11.560;2022-12-10T00:41:57;0.70;83.00
13458;DHT22;6801;53.018;11.560;2022-12-10T00:44:25;0.70;83.00
13458;DHT22;6801;53.018;11.560;2022-12-10T00:46:52;0.70;83.00
13458;DHT22;6801;53.018;11.560;2022-12-10T00:49:19;0.70;83.00
13458;DHT22;6801;53.018;11.560;2022-12-10T00:51:48;0.70;83.00
13458;DHT22;6801;53.018;11.560;2022-12-10T00:54:15;0.70;83.00
13458;DHT22;6801;53.018;11.560;2022-12-10T00:56:42;0.70;82.90
13458;DHT22;6801;53.018;11.560;2022-12-10T00:59:11;0.70;83.00
13458;DHT22;6801;53.018;11.560;2022-12-10T01:01:40;0.70;83.00
13458;DHT22;6801;53.018;11.560;2022-12-10T01:04:10;0.70;82.90
13458;DHT22;6801;53.018;11.560;2022-12-10T01:06:42;0.70;82.90
13458;DHT22;6801;53.018;11.560;2022-12-10T01:09:12;0.70;82.90
13458;DHT22;6801;53.018;11.560;2022-12-10T01:11:41;0.70;83.00
13458;DHT22;6801;53.018;11.560;2022-12-10T01:14:11;0.70;83.00
13458;DHT22;6801;53.018;11.560;2022-12-10T01:16:38;0.70;82.90
13458;DHT22;6801;53.018;11.560;2022-12-10T01:19:05;0.70;83.00
13458;DHT22;6801;53.018;11.560;2022-12-10T01:21:34;0.70;82.80
13458;DHT22;6801;53.018;11.560;2022-12-10T01:24:02;0.70;82.80
13458;DHT22;6801;53.018;11.560;2022-12-10T01:26:31;0.70;82.80
13458;DHT22;6801;53.018;11.560;2022-12-10T01:29:00;0.70;82.70
13458;DHT22;6801;53.018;11.560;2022-12-10T01:31:31;0.80;82.60
13458;DHT22;6801;53.018;11.560;2022-12-10T01:33:58;0.70;82.60
13458;DHT22;6801;53.018;11.560;2022-12-10T01:36:27;0.70;82.60
13458;DHT22;6801;53.018;11.560;2022-12-10T01:38:54;0.70;82.70
13458;DHT22;6801;53.018;11.560;2022-12-10T01:41:23;0.70;82.80
13458;DHT22;6801;53.018;11.560;2022-12-10T01:43:54;0.70;82.80
13458;DHT22;6801;53.018;11.560;2022-12-10T01:46:22;0.70;82.80
13458;DHT22;6801;53.018;11.560;2022-12-10T01:48:51;0.70;82.90
13458;DHT22;6801;53.018;11.560;2022-12-10T01:51:19;0.70;82.80
13458;DHT22;6801;53.018;11.560;2022-12-10T01:53:47;0.70;82.70
13458;DHT22;6801;53.018;11.560;2022-12-10T01:56:16;0.70;82.70
13458;DHT22;6801;53.018;11.560;2022-12-10T01:58:44;0.70;82.60
13458;DHT22;6801;53.018;11.560;2022-12-10T02:01:15;0.60;82.70
13458;DHT22;6801;53.018;11.560;2022-12-10T02:03:56;0.60;82.80
13458;DHT22;6801;53.018;11.560;2022-12-10T02:06:31;0.70;83.00
13458;DHT22;6801;53.018;11.560;2022-12-10T02:09:06;0.70;83.00
13458;DHT22;6801;53.018;11.560;2022-12-10T02:11:40;0.70;83.00
13458;DHT22;6801;53.018;11.560;2022-12-10T02:14:17;0.60;82.90
13458;DHT22;6801;53.018;11.560;2022-12-10T02:16:50;0.70;82.90
13458;DHT22;6801;53.018;11.560;2022-12-10T02:19:29;0.70;82.90
13458;DHT22;6801;53.018;11.560;2022-12-10T02:21:59;0.70;83.00
13458;DHT22;6801;53.018;11.560;2022-12-10T02:24:33;0.80;82.90
13458;DHT22;6801;53.018;11.560;2022-12-10T02:27:06;0.70;82.60
13458;DHT22;6801;53.018;11.560;2022-12-10T02:29:38;0.70;82.70
13458;DHT22;6801;53.018;11.560;2022-12-10T02:32:08;0.60;82.80
13458;DHT22;6801;53.018;11.560;2022-12-10T02:34:37;0.70;82.70
13458;DHT22;6801;53.018;11.560;2022-12-10T02:37:12;0.70;82.90
13458;DHT22;6801;53.018;11.560;2022-12-10T02:39:44;0.60;82.90
13458;DHT22;6801;53.018;11.560;2022-12-10T02:42:15;0.60;82.90
13458;DHT22;6801;53.018;11.560;2022-12-10T02:44:46;0.70;83.00
13458;DHT22;6801;53.018;11.560;2022-12-10T02:47:19;0.70;82.90
13458;DHT22;6801;53.018;11.560;2022-12-10T02:49:49;0.70;82.90
13458;DHT22;6801;53.018;11.560;2022-12-10T02:52:18;0.70;82.90
13458;DHT22;6801;53.018;11.560;2022-12-10T02:54:50;0.60;83.00
13458;DHT22;6801;53.018;11.560;2022-12-10T02:57:30;0.60;83.00
13458;DHT22;6801;53.018;11.560;2022-12-10T03:00:08;0.70;82.90
13458;DHT22;6801;53.018;11.560;2022-12-10T03:03:28;0.70;82.70
13458;DHT22;6801;53.018;11.560;2022-12-10T03:06:04;0.70;82.50
13458;DHT22;6801;53.018;11.560;2022-12-10T03:08:38;0.70;82.60
13458;DHT22;6801;53.018;11.560;2022-12-10T03:11:11;0.60;82.60
13458;DHT22;6801;53.018;11.560;2022-12-10T03:13:42;0.60;82.70
13458;DHT22;6801;53.018;11.560;2022-12-10T03:16:12;0.60;82.80
13458;DHT22;6801;53.018;11.560;2022-12-10T03:18:41;0.60;82.80
13458;DHT22;6801;53.018;11.560;2022-12-10T03:21:10;0.60;82.90
13458;DHT22;6801;53.018;11.560;2022-12-10T03:23:40;0.60;83.00
13458;DHT22;6801;53.018;11.560;2022-12-10T03:26:08;0.60;82.90
13458;DHT22;6801;53.018;11.560;2022-12-10T03:28:39;0.60;82.90
13458;DHT22;6801;53.018;11.560;2022-12-10T03:31:08;0.60;82.80
13458;DHT22;6801;53.018;11.560;2022-12-10T03:33:38;0.60;82.80
13458;DHT22;6801;53.018;11.560;2022-12-10T03:36:07;0.60;82.80
13458;DHT22;6801;53.018;11.560;2022-12-10T03:38:35;0.60;82.90
13458;DHT22;6801;53.018;11.560;2022-12-10T03:41:03;0.60;82.90
13458;DHT22;6801;53.018;11.560;2022-12-10T03:43:31;0.60;82.70
13458;DHT22;6801;53.018;11.560;2022-12-10T03:45:58;0.70;82.70
13458;DHT22;6801;53.018;11.560;2022-12-10T03:48:25;0.60;82.70
13458;DHT22;6801;53.018;11.560;2022-12-10T03:50:53;0.60;82.70
13458;DHT22;6801;53.018;11.560;2022-12-10T03:53:20;0.60;82.80
13458;DHT22;6801;53.018;11.560;2022-12-10T03:55:47;0.60;82.90
13458;DHT22;6801;53.018;11.560;2022-12-10T03:58:14;0.60;82.90
13458;DHT22;6801;53.018;11.560;2022-12-10T04:00:41;0.60;82.90
13458;DHT22;6801;53.018;11.560;2022-12-10T04:03:09;0.50;82.90
13458;DHT22;6801;53.018;11.560;2022-12-10T04:05:36;0.60;83.00
13458;DHT22;6801;53.018;11.560;2022-12-10T04:08:05;0.60;82.90
13458;DHT22;6801;53.018;11.560;2022-12-10T04:10:35;0.60;82.80
13458;DHT22;6801;53.018;11.560;2022-12-10T04:13:02;0.60;82.70
13458;DHT22;6801;53.018;11.560;2022-12-10T04:15:51;0.60;82.70
13458;DHT22;6801;53.018;11.560;2022-12-10T04:18:36;0.60;82.70
13458;DHT22;6801;53.018;11.560;2022-12-10T04:21:03;0.60;82.70
13458;DHT22;6801;53.018;11.560;2022-12-10T04:23:49;0.60;82.70
13458;DHT22;6801;53.018;11.560;2022-12-10T04:26:34;0.60;82.60
13458;DHT22;6801;53.018;11.560;2022-12-10T04:29:19;0.60;82.50
13458;DHT22;6801;53.018;11.560;2022-12-10T04:31:46;0.60;82.50
13458;DHT22;6801;53.018;11.560;2022-12-10T04:34:13;0.60;82.60
13458;DHT22;6801;53.018;11.560;2022-12-10T04:36:40;0.60;82.40
13458;DHT22;6801;53.018;11.560;2022-12-10T04:39:09;0.60;82.50
13458;DHT22;6801;53.018;11.560;2022-12-10T04:41:37;0.50;82.60
13458;DHT22;6801;53.018;11.560;2022-12-10T04:44:05;0.60;82.40
13458;DHT22;6801;53.018;11.560;2022-12-10T04:46:32;0.60;82.50
13458;DHT22;6801;53.018;11.560;2022-12-10T04:49:00;0.60;82.60
13458;DHT22;6801;53.018;11.560;2022-12-10T04:51:27;0.60;82.20
13458;DHT22;6801;53.018;11.560;2022-12-10T04:53:54;0.60;82.40
13458;DHT22;6801;53.018;11.560;2022-12-10T04:56:23;0.50;82.40
13458;DHT22;6801;53.018;11.560;2022-12-10T04:58:50;0.50;82.60
13458;DHT22;6801;53.018;11.560;2022-12-10T05:01:17;0.50;82.70
13458;DHT22;6801;53.018;11.560;2022-12-10T05:03:45;0.50;82.70
13458;DHT22;6801;53.018;11.560;2022-12-10T05:06:13;0.60;82.80
13458;DHT22;6801;53.018;11.560;2022-12-10T05:08:41;0.50;82.80
13458;DHT22;6801;53.018;11.560;2022-12-10T05:11:11;0.60;82.60
13458;DHT22;6801;53.018;11.560;2022-12-10T05:13:40;0.60;82.50
13458;DHT22;6801;53.018;11.560;2022-12-10T05:16:09;0.60;82.60
13458;DHT22;6801;53.018;11.560;2022-12-10T05:18:36;0.50;82.70
13458;DHT22;6801;53.018;11.560;2022-12-10T05:21:05;0.50;82.70
13458;DHT22;6801;53.018;11.560;2022-12-10T05:23:35;0.60;82.40
13458;DHT22;6801;53.018;11.560;2022-12-10T05:26:03;0.60;82.10
13458;DHT22;6801;53.018;11.560;2022-12-10T05:28:31;0.50;82.20
13458;DHT22;6801;53.018;11.560;2022-12-10T05:31:00;0.50;82.20
13458;DHT22;6801;53.018;11.560;2022-12-10T05:33:27;0.50;82.40
13458;DHT22;6801;53.018;11.560;2022-12-10T05:35:56;0.50;82.50
13458;DHT22;6801;53.018;11.560;2022-12-10T05:38:24;0.50;82.60
13458;DHT22;6801;53.018;11.560;2022-12-10T05:40:52;0.50;82.60
13458;DHT22;6801;53.018;11.560;2022-12-10T05:43:19;0.50;82.70
13458;DHT22;6801;53.018;11.560;2022-12-10T05:45:47;0.50;82.70
13458;DHT22;6801;53.018;11.560;2022-12-10T05:48:15;0.50;82.70
13458;DHT22;6801;53.018;11.560;2022-12-10T05:50:43;0.50;82.70
13458;DHT22;6801;53.018;11.560;2022-12-10T05:53:10;0.50;82.80
13458;DHT22;6801;53.018;11.560;2022-12-10T05:55:40;0.50;82.80
13458;DHT22;6801;53.018;11.560;2022-12-10T05:58:07;0.50;82.80
13458;DHT22;6801;53.018;11.560;2022-12-10T06:00:34;0.50;82.80
13458;DHT22;6801;53.018;11.560;2022-12-10T06:03:01;0.50;82.80
13458;DHT22;6801;53.018;11.560;2022-12-10T06:05:36;0.50;82.80
13458;DHT22;6801;53.018;11.560;2022-12-10T06:08:03;0.50;82.80
13458;DHT22;6801;53.018;11.560;2022-12-10T06:10:33;0.50;82.70
13458;DHT22;6801;53.018;11.560;2022-12-10T06:13:00;0.50;82.70
13458;DHT22;6801;53.018;11.560;2022-12-10T06:15:27;0.50;82.70
13458;DHT22;6801;53.018;11.560;2022-12-10T06:17:54;0.50;82.70
13458;DHT22;6801;53.018;11.560;2022-12-10T06:20:21;0.50;82.70
13458;DHT22;6801;53.018;11.560;2022-12-10T06:22:50;0.50;82.60
13458;DHT22;6801;53.018;11.560;2022-12-10T06:25:17;0.50;82.50
13458;DHT22;6801;53.018;11.560;2022-12-10T06:27:44;0.50;82.50
13458;DHT22;6801;53.018;11.560;2022-12-10T06:30:12;0.50;82.40
13458;DHT22;6801;53.018;11.560;2022-12-10T06:32:39;0.50;82.50
13458;DHT22;6801;53.018;11.560;2022-12-10T06:35:09;0.50;82.50
13458;DHT22;6801;53.018;11.560;2022-12-10T06:37:36;0.50;82.60
13458;DHT22;6801;53.018;11.560;2022-12-10T06:40:06;0.50;82.70
13458;DHT22;6801;53.018;11.560;2022-12-10T06:42:34;0.50;82.50
13458;DHT22;6801;53.018;11.560;2022-12-10T06:45:01;0.50;82.40
13458;DHT22;6801;53.018;11.560;2022-12-10T06:47:28;0.50;82.50
13458;DHT22;6801;53.018;11.560;2022-12-10T06:49:55;0.50;82.50
13458;DHT22;6801;53.018;11.560;2022-12-10T06:52:22;0.50;82.40
13458;DHT22;6801;53.018;11.560;2022-12-10T06:54:49;0.50;82.40
13458;DHT22;6801;53.018;11.560;2022-12-10T06:57:18;0.50;82.40
13458;DHT22;6801;53.018;11.560;2022-12-10T06:59:45;0.40;82.30
13458;DHT22;6801;53.018;11.560;2022-12-10T07:02:12;0.50;82.40
13458;DHT22;6801;53.018;11.560;2022-12-10T07:04:39;0.50;82.30
13458;DHT22;6801;53.018;11.560;2022-12-10T07:07:06;0.50;82.30
13458;DHT22;6801;53.018;11.560;2022-12-10T07:09:33;0.50;81.70
13458;DHT22;6801;53.018;11.560;2022-12-10T07:12:01;0.50;81.80
13458;DHT22;6801;53.018;11.560;2022-12-10T07:14:29;0.50;82.00
13458;DHT22;6801;53.018;11.560;2022-12-10T07:16:56;0.50;82.10
13458;DHT22;6801;53.018;11.560;2022-12-10T07:19:23;0.50;82.20
13458;DHT22;6801;53.018;11.560;2022-12-10T07:21:50;0.50;82.30
13458;DHT22;6801;53.018;11.560;2022-12-10T07:24:19;0.50;82.40
13458;DHT22;6801;53.018;11.560;2022-12-10T07:26:46;0.50;82.50
13458;DHT22;6801;53.018;11.560;2022-12-10T07:29:16;0.50;82.50
13458;DHT22;6801;53.018;11.560;2022-12-10T07:31:44;0.40;82.50
13458;DHT22;6801;53.018;11.560;2022-12-10T07:34:12;0.50;82.50
13458;DHT22;6801;53.018;11.560;2022-12-10T07:36:39;0.50;82.30
13458;DHT22;6801;53.018;11.560;2022-12-10T07:39:07;0.40;82.30
13458;DHT22;6801;53.018;11.560;2022-12-10T07:41:35;0.50;82.40
13458;DHT22;6801;53.018;11.560;2022-12-10T07:44:03;0.50;82.40
13458;DHT22;6801;53.018;11.560;2022-12-10T07:46:32;0.50;82.50
13458;DHT22;6801;53.018;11.560;2022-12-10T07:49:01;0.50;82.50
13458;DHT22;6801;53.018;11.560;2022-12-10T07:51:29;0.50;82.60
13458;DHT22;6801;53.018;11.560;2022-12-10T07:53:57;0.50;82.50
13458;DHT22;6801;53.018;11.560;2022-12-10T07:56:24;0.50;82.40
13458;DHT22;6801;53.018;11.560;2022-12-10T07:58:52;0.50;82.10
13458;DHT22;6801;53.018;11.560;2022-12-10T08:01:20;0.50;82.10
13458;DHT22;6801;53.018;11.560;2022-12-10T08:03:49;0.50;82.10
13458;DHT22;6801;53.018;11.560;2022-12-10T08:06:19;0.50;82.20
13458;DHT22;6801;53.018;11.560;2022-12-10T08:08:47;0.50;82.20
13458;DHT22;6801;53.018;11.560;2022-12-10T08:11:15;0.50;82.20
13458;DHT22;6801;53.018;11.560;2022-12-10T08:13:43;0.40;82.20
13458;DHT22;6801;53.018;11.560;2022-12-10T08:16:14;0.40;82.20
13458;DHT22;6801;53.018;11.560;2022-12-10T08:18:45;0.40;82.20
13458;DHT22;6801;53.018;11.560;2022-12-10T08:21:14;0.40;82.30
13458;DHT22;6801;53.018;11.560;2022-12-10T08:23:44;0.40;82.40
13458;DHT22;6801;53.018;11.560;2022-12-10T08:26:13;0.40;82.30
13458;DHT22;6801;53.018;11.560;2022-12-10T08:28:40;0.40;82.30
13458;DHT22;6801;53.018;11.560;2022-12-10T08:31:09;0.40;82.30
13458;DHT22;6801;53.018;11.560;2022-12-10T08:33:37;0.40;82.20
13458;DHT22;6801;53.018;11.560;2022-12-10T08:36:06;0.40;82.30
13458;DHT22;6801;53.018;11.560;2022-12-10T08:38:34;0.40;82.30
13458;DHT22;6801;53.018;11.560;2022-12-10T08:41:07;0.50;82.40
13458;DHT22;6801;53.018;11.560;2022-12-10T08:43:36;0.50;82.50
13458;DHT22;6801;53.018;11.560;2022-12-10T08:46:03;0.50;82.50
13458;DHT22;6801;53.018;11.560;2022-12-10T08:48:31;0.50;82.50
13458;DHT22;6801;53.018;11.560;2022-12-10T08:50:58;0.50;82.50
13458;DHT22;6801;53.018;11.560;2022-12-10T08:53:25;0.50;82.50
13458;DHT22;6801;53.018;11.560;2022-12-10T08:55:53;0.50;82.50
13458;DHT22;6801;53.018;11.560;2022-12-10T08:58:22;0.60;82.50
13458;DHT22;6801;53.018;11.560;2022-12-10T09:00:49;0.60;82.50
13458;DHT22;6801;53.018;11.560;2022-12-10T09:03:16;0.60;82.50
13458;DHT22;6801;53.018;11.560;2022-12-10T09:05:43;0.60;82.50
13458;DHT22;6801;53.018;11.560;2022-12-10T09:08:11;0.70;82.50
13458;DHT22;6801;53.018;11.560;2022-12-10T09:10:39;0.60;82.50
13458;DHT22;6801;53.018;11.560;2022-12-10T09:13:06;0.70;82.50
13458;DHT22;6801;53.018;11.560;2022-12-10T09:15:35;0.70;82.40
13458;DHT22;6801;53.018;11.560;2022-12-10T09:18:03;0.70;82.40
13458;DHT22;6801;53.018;11.560;2022-12-10T09:20:30;0.70;82.40
13458;DHT22;6801;53.018;11.560;2022-12-10T09:22:57;0.70;82.40
13458;DHT22;6801;53.018;11.560;2022-12-10T09:25:24;0.70;82.40
13458;DHT22;6801;53.018;11.560;2022-12-10T09:27:51;0.70;82.40
13458;DHT22;6801;53.018;11.560;2022-12-10T09:30:18;0.70;82.40
13458;DHT22;6801;53.018;11.560;2022-12-10T09:32:47;0.70;82.40
13458;DHT22;6801;53.018;11.560;2022-12-10T09:35:14;0.70;82.40
13458;DHT22;6801;53.018;11.560;2022-12-10T09:37:41;0.80;82.40
13458;DHT22;6801;53.018;11.560;2022-12-10T09:40:10;0.80;82.40
13458;DHT22;6801;53.018;11.560;2022-12-10T09:42:47;0.80;82.40
13458;DHT22;6801;53.018;11.560;2022-12-10T09:45:20;0.80;82.30
13458;DHT22;6801;53.018;11.560;2022-12-10T09:47:59;0.80;82.30
13458;DHT22;6801;53.018;11.560;2022-12-10T09:50:31;0.80;82.20
13458;DHT22;6801;53.018;11.560;2022-12-10T09:53:00;0.80;82.30
13458;DHT22;6801;53.018;11.560;2022-12-10T09:55:33;0.80;82.30
13458;DHT22;6801;53.018;11.560;2022-12-10T09:58:03;0.80;82.30
13458;DHT22;6801;53.018;11.560;2022-12-10T10:00:35;0.80;82.30
13458;DHT22;6801;53.018;11.560;2022-12-10T10:03:05;0.80;82.30
13458;DHT22;6801;53.018;11.560;2022-12-10T10:05:36;0.80;82.20
13458;DHT22;6801;53.018;11.560;2022-12-10T10:08:07;0.80;82.20
13458;DHT22;6801;53.018;11.560;2022-12-10T10:10:39;0.80;82.20
13458;DHT22;6801;53.018;11.560;2022-12-10T10:13:15;0.90;82.20
13458;DHT22;6801;53.018;11.560;2022-12-10T10:15:44;0.80;82.20
13458;DHT22;6801;53.018;11.560;2022-12-10T10:18:20;0.80;82.20
13458;DHT22;6801;53.018;11.560;2022-12-10T10:20:49;0.90;82.20
13458;DHT22;6801;53.018;11.560;2022-12-10T10:23:17;0.90;82.30
13458;DHT22;6801;53.018;11.560;2022-12-10T10:25:44;0.90;82.30
13458;DHT22;6801;53.018;11.560;2022-12-10T10:28:13;0.90;82.30
13458;DHT22;6801;53.018;11.560;2022-12-10T10:30:43;0.90;82.30
13458;DHT22;6801;53.018;11.560;2022-12-10T10:33:12;0.90;82.30
13458;DHT22;6801;53.018;11.560;2022-12-10T10:35:46;0.90;82.30
13458;DHT22;6801;53.018;11.560;2022-12-10T10:38:18;0.90;82.30
13458;DHT22;6801;53.018;11.560;2022-12-10T10:40:50;0.90;82.30
13458;DHT22;6801;53.018;11.560;2022-12-10T10:43:21;0.90;82.30
13458;DHT22;6801;53.018;11.560;2022-12-10T10:45:51;1.00;82.30
13458;DHT22;6801;53.018;11.560;2022-12-10T10:48:21;0.90;82.30
13458;DHT22;6801;53.018;11.560;2022-12-10T10:50:51;1.00;82.30
13458;DHT22;6801;53.018;11.560;2022-12-10T10:53:30;1.00;82.30
13458;DHT22;6801;53.018;11.560;2022-12-10T10:56:09;1.00;82.30
13458;DHT22;6801;53.018;11.560;2022-12-10T10:58:47;1.00;82.30
13458;DHT22;6801;53.018;11.560;2022-12-10T11:01:14;1.00;82.30
13458;DHT22;6801;53.018;11.560;2022-12-10T11:03:47;1.00;82.30
13458;DHT22;6801;53.018;11.560;2022-12-10T11:06:16;1.00;82.30
13458;DHT22;6801;53.018;11.560;2022-12-10T11:08:45;1.00;82.30
13458;DHT22;6801;53.018;11.560;2022-12-10T11:11:19;1.00;82.30
13458;DHT22;6801;53.018;11.560;2022-12-10T11:13:47;1.00;82.30
13458;DHT22;6801;53.018;11.560;2022-12-10T11:16:19;1.00;82.30
13458;DHT22;6801;53.018;11.560;2022-12-10T11:18:54;1.00;82.30
13458;DHT22;6801;53.018;11.560;2022-12-10T11:21:24;1.00;82.30
13458;DHT22;6801;53.018;11.560;2022-12-10T11:23:53;1.00;82.30
13458;DHT22;6801;53.018;11.560;2022-12-10T11:26:46;1.10;82.30
13458;DHT22;6801;53.018;11.560;2022-12-10T11:29:30;1.00;82.30
13458;DHT22;6801;53.018;11.560;2022-12-10T11:32:05;1.10;82.30
13458;DHT22;6801;53.018;11.560;2022-12-10T11:34:41;1.10;82.30
13458;DHT22;6801;53.018;11.560;2022-12-10T11:37:29;1.10;82.30
13458;DHT22;6801;53.018;11.560;2022-12-10T11:40:11;1.10;82.30
13458;DHT22;6801;53.018;11.560;2022-12-10T11:42:51;1.10;82.30
13458;DHT22;6801;53.018;11.560;2022-12-10T11:45:26;1.00;82.30
13458;DHT22;6801;53.018;11.560;2022-12-10T11:48:03;1.10;82.30
13458;DHT22;6801;53.018;11.560;2022-12-10T11:50:42;1.00;82.30
13458;DHT22;6801;53.018;11.560;2022-12-10T11:53:32;1.10;82.30
13458;DHT22;6801;53.018;11.560;2022-12-10T11:56:08;1.10;82.30
13458;DHT22;6801;53.018;11.560;2022-12-10T11:58:57;1.10;82.30
13458;DHT22;6801;53.018;11.560;2022-12-10T12:01:35;1.10;82.30
13458;DHT22;6801;53.018;11.560;2022-12-10T12:04:20;1.10;82.30
13458;DHT22;6801;53.018;11.560;2022-12-10T12:07:07;1.10;82.20
13458;DHT22;6801;53.018;11.560;2022-12-10T12:09:49;1.10;82.30
13458;DHT22;6801;53.018;11.560;2022-12-10T12:12:27;1.10;82.20
13458;DHT22;6801;53.018;11.560;2022-12-10T12:15:02;1.10;82.10
13458;DHT22;6801;53.018;11.560;2022-12-10T12:17:34;1.10;82.10
13458;DHT22;6801;53.018;11.560;2022-12-10T12:20:04;1.10;82.10
13458;DHT22;6801;53.018;11.560;2022-12-10T12:22:42;1.10;82.10
13458;DHT22;6801;53.018;11.560;2022-12-10T12:25:20;1.10;82.10
13458;DHT22;6801;53.018;11.560;2022-12-10T12:27:53;1.10;82.00
13458;DHT22;6801;53.018;11.560;2022-12-10T12:30:23;1.10;82.00
13458;DHT22;6801;53.018;11.560;2022-12-10T12:32:54;1.10;82.10
13458;DHT22;6801;53.018;11.560;2022-12-10T12:35:32;1.10;82.10
13458;DHT22;6801;53.018;11.560;2022-12-10T12:38:23;1.10;82.00
13458;DHT22;6801;53.018;11.560;2022-12-10T12:40:58;1.10;82.00
13458;DHT22;6801;53.018;11.560;2022-12-10T12:43:37;1.10;82.00
13458;DHT22;6801;53.018;11.560;2022-12-10T12:46:12;1.10;82.10
13458;DHT22;6801;53.018;11.560;2022-12-10T12:48:46;1.10;82.10
13458;DHT22;6801;53.018;11.560;2022-12-10T12:51:19;1.10;82.10
13458;DHT22;6801;53.018;11.560;2022-12-10T12:53:47;1.10;82.20
13458;DHT22;6801;53.018;11.560;2022-12-10T12:56:24;1.10;82.10
13458;DHT22;6801;53.018;11.560;2022-12-10T12:59:03;1.10;82.10
13458;DHT22;6801;53.018;11.560;2022-12-10T13:01:35;1.10;82.10
13458;DHT22;6801;53.018;11.560;2022-12-10T13:04:05;1.10;82.10
13458;DHT22;6801;53.018;11.560;2022-12-10T13:06:35;1.10;82.00
13458;DHT22;6801;53.018;11.560;2022-12-10T13:09:26;1.10;82.00
13458;DHT22;6801;53.018;11.560;2022-12-10T13:12:26;1.10;81.90
13458;DHT22;6801;53.018;11.560;2022-12-10T13:15:02;1.10;81.90
13458;DHT22;6801;53.018;11.560;2022-12-10T13:17:32;1.10;81.90
13458;DHT22;6801;53.018;11.560;2022-12-10T13:20:30;1.10;81.90
13458;DHT22;6801;53.018;11.560;2022-12-10T13:22:59;1.10;81.90
13458;DHT22;6801;53.018;11.560;2022-12-10T13:25:57;1.10;81.90
13458;DHT22;6801;53.018;11.560;2022-12-10T13:28:48;1.10;81.90
13458;DHT22;6801;53.018;11.560;2022-12-10T13:34:21;1.10;81.80
13458;DHT22;6801;53.018;11.560;2022-12-10T13:37:27;1.10;81.80
13458;DHT22;6801;53.018;11.560;2022-12-10T13:40:12;1.10;81.90
13458;DHT22;6801;53.018;11.560;2022-12-10T13:42:43;1.10;81.80
13458;DHT22;6801;53.018;11.560;2022-12-10T13:45:33;1.10;81.80
13458;DHT22;6801;53.018;11.560;2022-12-10T13:48:30;1.00;81.90
13458;DHT22;6801;53.018;11.560;2022-12-10T13:51:06;1.10;82.00
13458;DHT22;6801;53.018;11.560;2022-12-10T13:53:43;1.10;82.00
13458;DHT22;6801;53.018;11.560;2022-12-10T13:56:19;1.10;82.00
13458;DHT22;6801;53.018;11.560;2022-12-10T13:58:53;1.10;82.00
13458;DHT22;6801;53.018;11.560;2022-12-10T14:01:31;1.10;82.00
13458;DHT22;6801;53.018;11.560;2022-12-10T14:04:30;1.10;82.00
13458;DHT22;6801;53.018;11.560;2022-12-10T14:06:59;1.10;81.90
13458;DHT22;6801;53.018;11.560;2022-12-10T14:09:30;1.10;82.00
13458;DHT22;6801;53.018;11.560;2022-12-10T14:12:02;1.10;81.90
13458;DHT22;6801;53.018;11.560;2022-12-10T14:14:33;1.10;82.00
13458;DHT22;6801;53.018;11.560;2022-12-10T14:17:05;1.10;82.00
13458;DHT22;6801;53.018;11.560;2022-12-10T14:19:34;1.10;82.00
13458;DHT22;6801;53.018;11.560;2022-12-10T14:22:05;1.10;82.00
13458;DHT22;6801;53.018;11.560;2022-12-10T14:24:34;1.10;81.90
13458;DHT22;6801;53.018;11.560;2022-12-10T14:27:11;1.10;81.90
13458;DHT22;6801;53.018;11.560;2022-12-10T14:29:43;1.10;81.90
13458;DHT22;6801;53.018;11.560;2022-12-10T14:32:14;1.10;81.90
13458;DHT22;6801;53.018;11.560;2022-12-10T14:34:42;1.10;81.80
13458;DHT22;6801;53.018;11.560;2022-12-10T14:37:13;1.00;81.80
13458;DHT22;6801;53.018;11.560;2022-12-10T14:39:40;1.00;81.80
13458;DHT22;6801;53.018;11.560;2022-12-10T14:42:13;1.00;81.80
13458;DHT22;6801;53.018;11.560;2022-12-10T14:44:41;1.00;81.80
13458;DHT22;6801;53.018;11.560;2022-12-10T14:47:15;1.00;81.70
13458;DHT22;6801;53.018;11.560;2022-12-10T14:49:44;1.00;81.60
13458;DHT22;6801;53.018;11.560;2022-12-10T14:52:14;1.00;81.50
13458;DHT22;6801;53.018;11.560;2022-12-10T14:54:41;1.00;81.50
13458;DHT22;6801;53.018;11.560;2022-12-10T14:57:15;1.00;81.60
13458;DHT22;6801;53.018;11.560;2022-12-10T14:59:46;1.00;81.60
13458;DHT22;6801;53.018;11.560;2022-12-10T15:02:20;1.00;81.70
13458;DHT22;6801;53.018;11.560;2022-12-10T15:04:49;1.00;81.70
13458;DHT22;6801;53.018;11.560;2022-12-10T15:07:19;1.00;81.70
13458;DHT22;6801;53.018;11.560;2022-12-10T15:09:49;1.00;81.70
13458;DHT22;6801;53.018;11.560;2022-12-10T15:12:27;1.00;81.70
13458;DHT22;6801;53.018;11.560;2022-12-10T15:14:55;1.00;81.70
13458;DHT22;6801;53.018;11.560;2022-12-10T15:17:41;1.00;81.70
13458;DHT22;6801;53.018;11.560;2022-12-10T15:20:19;1.00;81.70
13458;DHT22;6801;53.018;11.560;2022-12-10T15:22:47;1.00;81.70
13458;DHT22;6801;53.018;11.560;2022-12-10T15:25:23;1.00;81.20
13458;DHT22;6801;53.018;11.560;2022-12-10T15:27:56;1.00;80.80
13458;DHT22;6801;53.018;11.560;2022-12-10T15:30:31;1.00;80.70
13458;DHT22;6801;53.018;11.560;2022-12-10T15:33:01;0.90;80.80
13458;DHT22;6801;53.018;11.560;2022-12-10T15:35:28;0.90;80.90
13458;DHT22;6801;53.018;11.560;2022-12-10T15:37:55;0.90;81.00
13458;DHT22;6801;53.018;11.560;2022-12-10T15:40:27;0.90;81.20
13458;DHT22;6801;53.018;11.560;2022-12-10T15:43:10;0.90;81.20
13458;DHT22;6801;53.018;11.560;2022-12-10T15:45:40;0.90;81.00
13458;DHT22;6801;53.018;11.560;2022-12-10T15:48:11;0.90;81.00
13458;DHT22;6801;53.018;11.560;2022-12-10T15:50:40;0.90;81.20
13458;DHT22;6801;53.018;11.560;2022-12-10T15:53:10;0.90;81.30
13458;DHT22;6801;53.018;11.560;2022-12-10T15:55:38;0.90;81.50
13458;DHT22;6801;53.018;11.560;2022-12-10T15:58:10;0.90;81.50
13458;DHT22;6801;53.018;11.560;2022-12-10T16:00:37;0.90;81.60
13458;DHT22;6801;53.018;11.560;2022-12-10T16:03:11;0.90;81.70
13458;DHT22;6801;53.018;11.560;2022-12-10T16:05:39;0.90;81.60
13458;DHT22;6801;53.018;11.560;2022-12-10T16:08:12;0.90;81.60
13458;DHT22;6801;53.018;11.560;2022-12-10T16:10:40;1.00;81.60
13458;DHT22;6801;53.018;11.560;2022-12-10T16:13:11;0.90;81.60